createdAt,value
2023-09-11T00:00:20.098Z,22.94
2023-09-11T00:01:23.645Z,24.31
2023-09-11T00:02:26.523Z,19.80
2023-09-11T00:03:29.418Z,22.50
2023-09-11T00:04:32.296Z,20.19
2023-09-11T00:05:36.382Z,23.75
2023-09-11T00:06:41.670Z,24.63
2023-09-11T00:07:46.157Z,22.37
2023-09-11T00:08:49.034Z,23.75
2023-09-11T00:09:53.273Z,21.37
2023-09-11T00:10:56.155Z,23.87
2023-09-11T00:11:58.968Z,27.87
2023-09-11T00:13:01.755Z,19.37
2023-09-11T00:14:04.577Z,22.44
2023-09-11T00:15:07.752Z,25.25
2023-09-11T00:16:10.713Z,20.25
2023-09-11T00:17:13.496Z,23.31
2023-09-11T00:18:16.432Z,27.75
2023-09-11T00:19:19.349Z,27.94
2023-09-11T00:20:22.273Z,22.69
2023-09-11T00:21:25.051Z,22.13
2023-09-11T00:22:27.878Z,25.94
2023-09-11T00:23:30.852Z,21.31
2023-09-11T00:24:36.704Z,24.94
2023-09-11T00:25:38.031Z,27.37
2023-09-11T00:26:40.939Z,20.94
2023-09-11T00:27:43.851Z,21.62
2023-09-11T00:28:46.655Z,23.31
2023-09-11T00:29:49.484Z,24.81
2023-09-11T00:30:52.369Z,24.63
2023-09-11T00:31:55.292Z,23.12
2023-09-11T00:32:58.182Z,22.00
2023-09-11T00:34:01.006Z,26.25
2023-09-11T00:35:03.983Z,20.56
2023-09-11T00:36:06.965Z,28.20
2023-09-11T00:37:09.891Z,30.12
2023-09-11T00:38:12.953Z,22.37
2023-09-11T00:39:15.747Z,24.56
2023-09-11T00:40:19.181Z,26.31
2023-09-11T00:41:22.075Z,25.37
2023-09-11T00:42:25.029Z,23.44
2023-09-11T00:43:27.903Z,24.69
2023-09-11T00:44:33.047Z,23.00
2023-09-11T00:45:36.894Z,24.19
2023-09-11T00:46:40.647Z,21.12
2023-09-11T00:47:44.643Z,24.87
2023-09-11T00:48:47.522Z,15.00
2023-09-11T00:49:50.417Z,19.87
2023-09-11T00:50:53.419Z,20.50
2023-09-11T00:51:56.306Z,20.62
2023-09-11T00:52:59.379Z,20.12
2023-09-11T00:54:02.691Z,23.56
2023-09-11T00:55:08.527Z,22.44
2023-09-11T00:56:11.528Z,30.37
2023-09-11T00:57:14.842Z,18.50
2023-09-11T00:58:18.120Z,22.56
2023-09-11T00:59:22.778Z,29.27
2023-09-11T01:00:25.731Z,22.94
2023-09-11T01:01:30.074Z,23.31
2023-09-11T01:02:33.035Z,26.06
2023-09-11T01:03:36.119Z,26.12
2023-09-11T01:04:39.279Z,23.81
2023-09-11T01:05:43.151Z,28.75
2023-09-11T01:06:47.209Z,31.12
2023-09-11T01:07:50.034Z,29.94
2023-09-11T01:08:52.901Z,28.62
2023-09-11T01:09:55.815Z,29.80
2023-09-11T01:10:58.720Z,23.38
2023-09-11T01:12:01.879Z,29.50
2023-09-11T01:13:05.048Z,25.94
2023-09-11T01:14:07.935Z,24.94
2023-09-11T01:15:11.348Z,26.56
2023-09-11T01:16:21.759Z,19.50
2023-09-11T01:17:26.169Z,25.37
2023-09-11T01:18:30.632Z,26.19
2023-09-11T01:19:51.330Z,25.44
2023-09-11T01:21:10.449Z,27.94
2023-09-11T01:22:26.943Z,26.87
2023-09-11T01:23:37.059Z,26.37
2023-09-11T01:24:44.108Z,28.94
2023-09-11T01:26:08.717Z,25.56
2023-09-11T01:27:31.242Z,22.81
2023-09-11T01:28:47.741Z,25.50
2023-09-11T01:29:51.833Z,24.75
2023-09-11T01:30:55.709Z,23.75
2023-09-11T01:31:59.647Z,24.44
2023-09-11T01:33:03.914Z,23.69
2023-09-11T01:34:08.997Z,24.87
2023-09-11T01:35:12.988Z,22.62
2023-09-11T01:36:15.880Z,21.50
2023-09-11T01:37:18.700Z,19.37
2023-09-11T01:38:21.605Z,22.50
2023-09-11T01:39:24.465Z,25.06
2023-09-11T01:40:30.441Z,19.25
2023-09-11T01:41:37.449Z,19.69
2023-09-11T01:42:47.935Z,25.44
2023-09-11T01:43:52.474Z,22.69
2023-09-11T01:44:55.989Z,26.00
2023-09-11T01:45:59.950Z,23.06
2023-09-11T01:47:02.933Z,21.31
2023-09-11T01:48:07.103Z,13.13
2023-09-11T01:49:10.536Z,24.00
2023-09-11T01:50:19.879Z,24.63
2023-09-11T01:51:22.802Z,25.00
2023-09-11T01:52:26.268Z,21.81
2023-09-11T01:53:30.403Z,21.81
2023-09-11T01:54:33.688Z,21.27
2023-09-11T01:55:36.575Z,18.69
2023-09-11T01:56:41.131Z,23.69
2023-09-11T01:57:44.024Z,22.06
2023-09-11T01:58:46.926Z,23.19
2023-09-11T01:59:49.755Z,19.87
2023-09-11T02:00:52.698Z,21.00
2023-09-11T02:01:55.691Z,26.06
2023-09-11T02:02:58.776Z,24.25
2023-09-11T02:04:02.828Z,19.56
2023-09-11T02:05:06.041Z,21.56
2023-09-11T02:06:09.577Z,24.81
2023-09-11T02:07:12.375Z,23.00
2023-09-11T02:08:15.200Z,23.25
2023-09-11T02:09:18.105Z,21.25
2023-09-11T02:10:20.964Z,21.69
2023-09-11T02:11:23.799Z,21.81
2023-09-11T02:12:26.809Z,15.31
2023-09-11T02:13:29.624Z,23.75
2023-09-11T02:14:32.487Z,20.19
2023-09-11T02:15:35.363Z,21.37
2023-09-11T02:16:38.303Z,21.87
2023-09-11T02:17:41.228Z,23.62
2023-09-11T02:18:44.446Z,23.75
2023-09-11T02:19:49.961Z,25.50
2023-09-11T02:20:52.969Z,24.37
2023-09-11T02:21:55.863Z,24.56
2023-09-11T02:22:58.675Z,24.19
2023-09-11T02:24:01.486Z,22.94
2023-09-11T02:25:04.494Z,27.50
2023-09-11T02:26:08.529Z,24.31
2023-09-11T02:27:11.435Z,25.69
2023-09-11T02:28:14.273Z,25.44
2023-09-11T02:29:17.107Z,25.94
2023-09-11T02:30:20.029Z,24.25
2023-09-11T02:31:22.842Z,25.25
2023-09-11T02:32:25.781Z,21.06
2023-09-11T02:33:28.672Z,23.44
2023-09-11T02:34:31.460Z,23.06
2023-09-11T02:35:34.338Z,22.25
2023-09-11T02:36:38.810Z,22.81
2023-09-11T02:37:43.612Z,25.62
2023-09-11T02:38:46.027Z,21.44
2023-09-11T02:39:48.938Z,26.19
2023-09-11T02:41:06.990Z,25.12
2023-09-11T02:41:56.349Z,21.50
2023-09-11T02:42:59.160Z,25.75
2023-09-11T02:44:01.986Z,21.50
2023-09-11T02:45:05.018Z,30.19
2023-09-11T02:46:08.155Z,7.19
2023-09-11T02:47:11.008Z,26.12
2023-09-11T02:48:13.922Z,25.00
2023-09-11T02:49:16.838Z,28.62
2023-09-11T02:50:19.781Z,27.06
2023-09-11T02:51:22.717Z,25.62
2023-09-11T02:52:25.658Z,25.62
2023-09-11T02:53:28.523Z,23.12
2023-09-11T02:54:31.380Z,25.81
2023-09-11T02:55:34.888Z,22.13
2023-09-11T02:56:37.871Z,27.75
2023-09-11T02:57:40.785Z,26.37
2023-09-11T02:58:44.050Z,22.56
2023-09-11T02:59:47.302Z,23.31
2023-09-11T03:00:50.237Z,22.94
2023-09-11T03:01:53.034Z,26.50
2023-09-11T03:02:56.022Z,25.00
2023-09-11T03:03:58.955Z,22.94
2023-09-11T03:05:01.876Z,24.87
2023-09-11T03:06:05.084Z,27.13
2023-09-11T03:07:07.960Z,24.25
2023-09-11T03:08:10.851Z,25.69
2023-09-11T03:09:13.669Z,24.00
2023-09-11T03:10:16.691Z,27.00
2023-09-11T03:11:19.645Z,27.50
2023-09-11T03:12:22.464Z,25.19
2023-09-11T03:13:25.294Z,26.06
2023-09-11T03:14:28.212Z,28.25
2023-09-11T03:15:31.590Z,21.87
2023-09-11T03:16:34.580Z,30.12
2023-09-11T03:17:39.493Z,24.50
2023-09-11T03:18:42.517Z,27.40
2023-09-11T03:19:45.686Z,24.69
2023-09-11T03:20:50.147Z,27.31
2023-09-11T03:21:56.553Z,29.87
2023-09-11T03:22:59.656Z,26.06
2023-09-11T03:24:03.721Z,28.25
2023-09-11T03:25:06.753Z,23.62
2023-09-11T03:26:13.780Z,28.19
2023-09-11T03:27:16.919Z,26.31
2023-09-11T03:28:19.792Z,28.69
2023-09-11T03:29:23.742Z,29.44
2023-09-11T03:30:26.697Z,27.06
2023-09-11T03:31:30.017Z,25.62
2023-09-11T03:32:33.041Z,29.63
2023-09-11T03:33:36.060Z,28.75
2023-09-11T03:34:39.118Z,27.69
2023-09-11T03:35:42.160Z,32.40
2023-09-11T03:36:45.200Z,30.88
2023-09-11T03:37:48.048Z,32.56
2023-09-11T03:38:50.900Z,34.38
2023-09-11T03:39:53.866Z,30.88
2023-09-11T03:40:56.766Z,24.69
2023-09-11T03:41:59.651Z,27.19
2023-09-11T03:43:02.515Z,32.31
2023-09-11T03:44:05.603Z,30.25
2023-09-11T03:45:08.605Z,30.25
2023-09-11T03:46:12.129Z,27.56
2023-09-11T03:47:15.132Z,33.88
2023-09-11T03:48:18.066Z,30.37
2023-09-11T03:49:21.037Z,35.56
2023-09-11T03:50:25.906Z,30.56
2023-09-11T03:51:28.315Z,30.56
2023-09-11T03:52:31.146Z,31.62
2023-09-11T03:53:36.821Z,25.81
2023-09-11T03:54:39.690Z,26.94
2023-09-11T03:55:42.622Z,28.25
2023-09-11T03:56:49.685Z,27.19
2023-09-11T03:57:52.634Z,27.37
2023-09-11T03:58:55.682Z,29.31
2023-09-11T03:59:58.626Z,27.94
2023-09-11T04:01:03.421Z,25.37
2023-09-11T04:02:06.333Z,25.06
2023-09-11T04:03:11.988Z,23.75
2023-09-11T04:04:16.785Z,23.25
2023-09-11T04:05:21.573Z,21.37
2023-09-11T04:06:27.660Z,26.56
2023-09-11T04:07:30.623Z,27.81
2023-09-11T04:08:33.564Z,24.12
2023-09-11T04:09:38.140Z,27.19
2023-09-11T04:10:44.070Z,21.19
2023-09-11T04:11:48.511Z,25.12
2023-09-11T04:12:51.422Z,28.19
2023-09-11T04:13:54.256Z,30.25
2023-09-11T04:15:03.767Z,26.31
2023-09-11T04:16:01.839Z,29.31
2023-09-11T04:17:06.399Z,30.88
2023-09-11T04:18:09.376Z,28.69
2023-09-11T04:19:12.873Z,29.19
2023-09-11T04:20:15.881Z,28.44
2023-09-11T04:21:18.740Z,26.31
2023-09-11T04:22:21.674Z,25.69
2023-09-11T04:23:24.609Z,24.44
2023-09-11T04:24:27.447Z,25.94
2023-09-11T04:25:30.667Z,26.87
2023-09-11T04:26:38.083Z,30.40
2023-09-11T04:27:54.896Z,23.00
2023-09-11T04:28:51.731Z,29.63
2023-09-11T04:29:53.307Z,25.94
2023-09-11T04:30:59.412Z,28.12
2023-09-11T04:32:04.256Z,26.31
2023-09-11T04:33:06.787Z,27.62
2023-09-11T04:34:09.649Z,26.62
2023-09-11T04:35:13.774Z,31.94
2023-09-11T04:36:16.710Z,27.81
2023-09-11T04:37:19.518Z,24.00
2023-09-11T04:38:22.471Z,25.12
2023-09-11T04:39:25.430Z,26.00
2023-09-11T04:40:29.977Z,23.75
2023-09-11T04:41:32.822Z,30.69
2023-09-11T04:42:37.566Z,30.62
2023-09-11T04:43:43.204Z,27.94
2023-09-11T04:44:46.092Z,28.25
2023-09-11T04:45:48.970Z,25.06
2023-09-11T04:46:51.990Z,21.50
2023-09-11T04:47:55.006Z,29.00
2023-09-11T04:48:57.918Z,28.87
2023-09-11T04:50:00.735Z,29.75
2023-09-11T04:51:03.685Z,27.69
2023-09-11T04:52:06.629Z,29.37
2023-09-11T04:53:09.575Z,28.62
2023-09-11T04:54:16.997Z,23.31
2023-09-11T04:55:16.922Z,21.37
2023-09-11T04:56:23.010Z,31.00
2023-09-11T04:57:28.649Z,23.87
2023-09-11T04:58:31.581Z,23.06
2023-09-11T04:59:35.313Z,24.69
2023-09-11T05:00:38.922Z,25.94
2023-09-11T05:01:43.038Z,28.62
2023-09-11T05:02:45.999Z,23.38
2023-09-11T05:03:49.020Z,29.31
2023-09-11T05:04:53.666Z,26.44
2023-09-11T05:05:56.683Z,26.25
2023-09-11T05:06:59.629Z,27.37
2023-09-11T05:08:02.479Z,20.37
2023-09-11T05:10:09.986Z,25.31
2023-09-11T05:11:12.833Z,26.00
2023-09-11T05:12:18.318Z,23.31
2023-09-11T05:13:21.676Z,29.69
2023-09-11T05:14:24.574Z,25.50
2023-09-11T05:15:30.005Z,25.12
2023-09-11T05:16:31.878Z,28.50
2023-09-11T05:17:34.844Z,26.25
2023-09-11T05:18:37.825Z,25.75
2023-09-11T05:19:40.847Z,30.94
2023-09-11T05:20:43.776Z,25.88
2023-09-11T05:21:46.536Z,18.19
2023-09-11T05:22:49.373Z,23.25
2023-09-11T05:23:52.324Z,25.81
2023-09-11T05:24:55.289Z,34.13
2023-09-11T05:25:58.125Z,53.38
2023-09-11T05:27:01.147Z,62.56
2023-09-11T05:28:04.223Z,66.53
2023-09-11T05:29:07.164Z,73.00
2023-09-11T05:30:10.524Z,71.20
2023-09-11T05:31:13.364Z,67.53
2023-09-11T05:32:16.265Z,56.63
2023-09-11T05:33:20.353Z,55.06
2023-09-11T05:34:23.294Z,49.94
2023-09-11T05:35:28.897Z,36.44
2023-09-11T05:36:30.722Z,20.12
2023-09-11T05:37:33.620Z,12.44
2023-09-11T05:38:36.520Z,12.00
2023-09-11T05:39:39.543Z,9.06
2023-09-11T05:40:42.429Z,11.56
2023-09-11T05:41:47.611Z,10.44
2023-09-11T05:42:50.522Z,12.31
2023-09-11T05:43:53.424Z,11.69
2023-09-11T05:44:56.233Z,10.50
2023-09-11T05:45:59.149Z,10.50
2023-09-11T05:47:02.052Z,13.06
2023-09-11T05:48:04.992Z,14.50
2023-09-11T05:49:07.934Z,15.31
2023-09-11T05:50:10.969Z,14.13
2023-09-11T05:51:15.966Z,15.38
2023-09-11T05:52:18.953Z,14.06
2023-09-11T05:53:21.804Z,13.62
2023-09-11T05:54:24.640Z,13.44
2023-09-11T05:55:27.487Z,10.00
2023-09-11T05:56:30.667Z,11.00
2023-09-11T05:57:35.229Z,12.31
2023-09-11T05:58:38.682Z,8.63
2023-09-11T05:59:41.952Z,7.69
2023-09-11T06:00:44.881Z,8.88
2023-09-11T06:01:47.920Z,10.94
2023-09-11T06:02:50.840Z,12.69
2023-09-11T06:04:56.613Z,8.25
2023-09-11T06:05:59.535Z,8.19
2023-09-11T06:07:02.520Z,10.88
2023-09-11T06:08:05.455Z,10.25
2023-09-11T06:09:08.361Z,9.31
2023-09-11T06:10:12.473Z,10.38
2023-09-11T06:11:15.310Z,8.38
2023-09-11T06:12:18.129Z,8.94
2023-09-11T06:13:20.906Z,7.25
2023-09-11T06:14:23.791Z,10.25
2023-09-11T06:15:26.592Z,7.87
2023-09-11T06:16:29.499Z,11.25
2023-09-11T06:17:42.307Z,16.62
2023-09-11T06:18:37.892Z,9.25
2023-09-11T06:19:40.795Z,5.75
2023-09-11T06:20:43.832Z,7.44
2023-09-11T06:21:47.071Z,6.81
2023-09-11T06:22:50.796Z,5.37
2023-09-11T06:23:53.662Z,6.62
2023-09-11T06:24:56.530Z,10.38
2023-09-11T06:26:03.515Z,9.06
2023-09-11T06:27:07.852Z,9.44
2023-09-11T06:28:10.704Z,9.00
2023-09-11T06:29:13.544Z,5.56
2023-09-11T06:30:16.438Z,7.19
2023-09-11T06:31:19.296Z,7.94
2023-09-11T06:32:23.239Z,6.19
2023-09-11T06:33:26.644Z,7.87
2023-09-11T06:34:29.715Z,6.81
2023-09-11T06:35:35.242Z,8.44
2023-09-11T06:36:38.211Z,8.31
2023-09-11T06:37:41.040Z,8.75
2023-09-11T06:38:44.098Z,8.69
2023-09-11T06:39:47.226Z,10.63
2023-09-11T06:40:50.093Z,7.25
2023-09-11T06:41:52.958Z,8.13
2023-09-11T06:42:55.808Z,7.50
2023-09-11T06:43:58.604Z,9.25
2023-09-11T06:45:01.572Z,8.94
2023-09-11T06:46:04.687Z,8.63
2023-09-11T06:47:07.585Z,10.50
2023-09-11T06:48:13.478Z,11.88
2023-09-11T06:49:16.610Z,10.38
2023-09-11T06:50:22.143Z,12.00
2023-09-11T06:51:24.973Z,9.38
2023-09-11T06:52:27.846Z,8.13
2023-09-11T06:53:30.772Z,7.25
2023-09-11T06:54:38.375Z,8.88
2023-09-11T06:55:44.686Z,8.75
2023-09-11T06:56:49.226Z,8.44
2023-09-11T06:57:56.382Z,7.56
2023-09-11T06:58:59.229Z,6.37
2023-09-11T07:00:07.705Z,11.81
2023-09-11T07:01:10.580Z,24.37
2023-09-11T07:02:13.423Z,14.13
2023-09-11T07:03:16.363Z,15.50
2023-09-11T07:04:19.415Z,14.31
2023-09-11T07:05:22.760Z,17.62
2023-09-11T07:06:25.666Z,18.50
2023-09-11T07:07:28.533Z,20.25
2023-09-11T07:08:31.479Z,18.50
2023-09-11T07:09:36.301Z,17.44
2023-09-11T07:10:41.742Z,12.94
2023-09-11T07:11:43.318Z,12.63
2023-09-11T07:12:46.774Z,13.13
2023-09-11T07:13:49.566Z,11.69
2023-09-11T07:14:53.931Z,10.81
2023-09-11T07:15:57.954Z,9.88
2023-09-11T07:17:01.054Z,9.50
2023-09-11T07:18:04.026Z,14.38
2023-09-11T07:19:06.935Z,14.94
2023-09-11T07:20:10.718Z,14.63
2023-09-11T07:21:13.650Z,14.87
2023-09-11T07:22:16.617Z,12.13
2023-09-11T07:23:20.937Z,16.31
2023-09-11T07:24:24.862Z,12.75
2023-09-11T07:25:27.973Z,10.56
2023-09-11T07:26:30.952Z,9.25
2023-09-11T07:27:35.012Z,7.44
2023-09-11T07:28:53.614Z,11.44
2023-09-11T07:29:56.414Z,11.88
2023-09-11T07:31:00.992Z,9.25
2023-09-11T07:32:04.209Z,6.87
2023-09-11T07:33:07.144Z,7.19
2023-09-11T07:34:11.059Z,9.19
2023-09-11T07:35:14.072Z,8.00
2023-09-11T07:36:18.092Z,8.69
2023-09-11T07:37:22.653Z,5.94
2023-09-11T07:38:25.520Z,6.44
2023-09-11T07:39:28.283Z,8.69
2023-09-11T07:40:31.175Z,8.25
2023-09-11T07:41:35.776Z,7.81
2023-09-11T07:42:38.635Z,6.31
2023-09-11T07:43:41.497Z,5.12
2023-09-11T07:44:44.370Z,3.62
2023-09-11T07:45:47.241Z,4.25
2023-09-11T07:46:50.162Z,11.81
2023-09-11T07:47:53.147Z,3.87
2023-09-11T07:48:58.532Z,4.62
2023-09-11T07:50:00.542Z,4.37
2023-09-11T07:51:03.402Z,5.81
2023-09-11T07:52:06.399Z,5.50
2023-09-11T07:53:09.187Z,5.50
2023-09-11T07:54:12.181Z,5.12
2023-09-11T07:55:15.946Z,4.44
2023-09-11T07:56:19.483Z,6.56
2023-09-11T07:57:24.993Z,6.81
2023-09-11T07:58:26.675Z,4.56
2023-09-11T07:59:29.596Z,7.81
2023-09-11T08:00:32.530Z,4.31
2023-09-11T08:01:38.054Z,5.56
2023-09-11T08:02:41.328Z,2.94
2023-09-11T08:03:46.251Z,3.69
2023-09-11T08:04:49.129Z,4.06
2023-09-11T08:05:51.972Z,4.50
2023-09-11T08:06:54.918Z,4.75
2023-09-11T08:07:57.719Z,0.56
2023-09-11T08:09:00.614Z,3.12
2023-09-11T08:10:03.511Z,5.12
2023-09-11T08:11:23.524Z,5.37
2023-09-11T08:12:28.693Z,3.81
2023-09-11T08:13:31.531Z,6.81
2023-09-11T08:14:38.020Z,4.56
2023-09-11T08:15:40.454Z,5.56
2023-09-11T08:16:43.492Z,5.81
2023-09-11T08:17:46.479Z,5.37
2023-09-11T08:18:49.445Z,5.69
2023-09-11T08:19:52.293Z,1.81
2023-09-11T08:20:55.188Z,5.94
2023-09-11T08:21:58.026Z,6.00
2023-09-11T08:23:00.817Z,6.69
2023-09-11T08:24:03.905Z,5.37
2023-09-11T08:25:08.180Z,5.06
2023-09-11T08:26:12.138Z,6.56
2023-09-11T08:27:15.227Z,8.38
2023-09-11T08:28:18.107Z,6.12
2023-09-11T08:29:20.872Z,8.50
2023-09-11T08:30:23.743Z,5.62
2023-09-11T08:31:27.786Z,5.12
2023-09-11T08:32:30.730Z,5.00
2023-09-11T08:33:48.688Z,6.37
2023-09-11T08:34:40.192Z,16.12
2023-09-11T08:35:43.053Z,5.75
2023-09-11T08:36:46.317Z,9.81
2023-09-11T08:37:49.235Z,6.56
2023-09-11T08:38:52.136Z,6.69
2023-09-11T08:39:56.448Z,9.00
2023-09-11T08:40:59.376Z,5.87
2023-09-11T08:42:02.282Z,5.81
2023-09-11T08:43:05.252Z,5.56
2023-09-11T08:44:09.810Z,8.94
2023-09-11T08:45:12.713Z,7.25
2023-09-11T08:46:16.333Z,5.69
2023-09-11T08:47:20.744Z,3.75
2023-09-11T08:48:25.159Z,9.81
2023-09-11T08:49:29.599Z,5.94
2023-09-11T08:50:34.257Z,4.50
2023-09-11T08:51:41.732Z,5.19
2023-09-11T08:52:44.757Z,6.12
2023-09-11T08:53:49.110Z,9.19
2023-09-11T08:54:53.339Z,6.50
2023-09-11T08:55:57.050Z,4.87
2023-09-11T08:57:00.302Z,6.00
2023-09-11T08:58:04.668Z,6.19
2023-09-11T08:59:08.500Z,7.50
2023-09-11T09:00:11.874Z,5.19
2023-09-11T09:01:14.849Z,6.12
2023-09-11T09:02:18.690Z,8.06
2023-09-11T09:03:22.015Z,5.94
2023-09-11T09:04:26.502Z,6.06
2023-09-11T09:05:34.140Z,6.00
2023-09-11T09:06:37.427Z,6.31
2023-09-11T09:07:40.792Z,4.81
2023-09-11T09:08:45.164Z,8.25
2023-09-11T09:09:48.453Z,6.31
2023-09-11T09:10:54.310Z,5.81
2023-09-11T09:11:56.468Z,4.37
2023-09-11T09:12:59.766Z,6.62
2023-09-11T09:14:04.041Z,5.25
2023-09-11T09:15:08.008Z,8.50
2023-09-11T09:16:11.039Z,5.75
2023-09-11T09:17:13.906Z,7.00
2023-09-11T09:18:16.812Z,6.81
2023-09-11T09:19:19.689Z,5.69
2023-09-11T09:20:23.122Z,8.69
2023-09-11T09:21:25.918Z,7.44
2023-09-11T09:22:28.771Z,6.56
2023-09-11T09:23:37.835Z,6.00
2023-09-11T09:24:53.584Z,6.31
2023-09-11T09:25:57.970Z,5.44
2023-09-11T09:27:04.387Z,6.25
2023-09-11T09:28:07.295Z,6.94
2023-09-11T09:29:10.167Z,8.25
2023-09-11T09:30:20.579Z,6.87
2023-09-11T09:31:24.248Z,7.12
2023-09-11T09:32:28.772Z,6.56
2023-09-11T09:33:31.857Z,21.00
2023-09-11T09:34:35.701Z,6.31
2023-09-11T09:35:39.006Z,7.12
2023-09-11T09:36:51.840Z,7.00
2023-09-11T09:37:56.157Z,5.75
2023-09-11T09:38:59.257Z,6.19
2023-09-11T09:40:02.282Z,5.25
2023-09-11T09:41:10.948Z,4.69
2023-09-11T09:42:13.846Z,6.81
2023-09-11T09:43:17.854Z,4.87
2023-09-11T09:44:30.705Z,5.87
2023-09-11T09:45:35.019Z,6.06
2023-09-11T09:46:39.423Z,6.44
2023-09-11T09:47:42.424Z,7.19
2023-09-11T09:48:45.477Z,7.50
2023-09-11T09:49:52.491Z,8.44
2023-09-11T09:50:59.864Z,5.25
2023-09-11T09:52:04.118Z,5.44
2023-09-11T09:53:06.913Z,8.56
2023-09-11T09:54:09.739Z,5.69
2023-09-11T09:55:14.135Z,5.31
2023-09-11T09:56:17.094Z,6.69
2023-09-11T09:57:21.229Z,6.56
2023-09-11T09:58:25.109Z,8.69
2023-09-11T09:59:28.020Z,8.38
2023-09-11T10:00:31.168Z,7.06
2023-09-11T10:01:35.510Z,8.88
2023-09-11T10:02:39.016Z,6.37
2023-09-11T10:03:43.666Z,6.19
2023-09-11T10:04:48.264Z,5.31
2023-09-11T10:05:51.176Z,4.62
2023-09-11T10:06:54.410Z,7.44
2023-09-11T10:07:58.749Z,7.37
2023-09-11T10:09:05.845Z,10.00
2023-09-11T10:10:14.143Z,8.88
2023-09-11T10:11:28.356Z,7.06
2023-09-11T10:12:31.415Z,8.00
2023-09-11T10:13:36.052Z,9.44
2023-09-11T10:14:39.052Z,15.00
2023-09-11T10:15:42.904Z,4.87
2023-09-11T10:16:47.388Z,7.00
2023-09-11T10:17:51.875Z,4.50
2023-09-11T10:18:57.065Z,6.69
2023-09-11T10:20:00.206Z,6.94
2023-09-11T10:21:03.212Z,7.00
2023-09-11T10:22:06.126Z,7.37
2023-09-11T10:23:09.330Z,4.62
2023-09-11T10:24:13.205Z,12.37
2023-09-11T10:25:16.367Z,8.13
2023-09-11T10:26:20.736Z,7.00
2023-09-11T10:27:23.710Z,9.25
2023-09-11T10:28:28.039Z,8.19
2023-09-11T10:29:32.508Z,8.38
2023-09-11T10:30:57.992Z,7.69
2023-09-11T10:31:59.460Z,10.81
2023-09-11T10:33:03.909Z,8.06
2023-09-11T10:34:08.554Z,6.62
2023-09-11T10:35:11.424Z,8.38
2023-09-11T10:36:15.848Z,7.62
2023-09-11T10:37:20.297Z,9.00
2023-09-11T10:38:23.380Z,7.81
2023-09-11T10:39:26.709Z,8.00
2023-09-11T10:40:31.343Z,8.69
2023-09-11T10:41:34.760Z,7.06
2023-09-11T10:42:38.020Z,6.62
2023-09-11T10:43:41.485Z,7.00
2023-09-11T10:44:44.688Z,7.50
2023-09-11T10:45:47.640Z,6.94
2023-09-11T10:46:51.738Z,6.75
2023-09-11T10:47:54.658Z,7.19
2023-09-11T10:48:59.120Z,8.44
2023-09-11T10:50:02.037Z,7.12
2023-09-11T10:51:06.435Z,8.44
2023-09-11T10:52:09.852Z,5.06
2023-09-11T10:53:12.724Z,5.87
2023-09-11T10:54:22.212Z,7.19
2023-09-11T10:55:25.481Z,5.44
2023-09-11T10:56:29.857Z,6.50
2023-09-11T10:57:35.167Z,5.25
2023-09-11T10:58:39.125Z,7.94
2023-09-11T10:59:41.973Z,6.44
2023-09-11T11:00:45.519Z,6.56
2023-09-11T11:01:48.632Z,6.12
2023-09-11T11:02:54.806Z,6.69
2023-09-11T11:03:57.991Z,6.81
2023-09-11T11:05:01.429Z,8.25
2023-09-11T11:06:05.107Z,7.31
2023-09-11T11:07:09.212Z,6.50
2023-09-11T11:08:12.104Z,8.50
2023-09-11T11:09:32.424Z,8.19
2023-09-11T11:10:31.610Z,6.69
2023-09-11T11:11:34.732Z,8.13
2023-09-11T11:12:37.699Z,7.44
2023-09-11T11:13:42.182Z,5.00
2023-09-11T11:14:46.742Z,6.56
2023-09-11T11:15:51.617Z,7.19
2023-09-11T11:17:01.895Z,7.69
2023-09-11T11:18:12.157Z,7.25
2023-09-11T11:19:16.559Z,5.69
2023-09-11T11:20:19.491Z,6.00
2023-09-11T11:21:22.357Z,3.06
2023-09-11T11:22:32.136Z,5.87
2023-09-11T11:23:36.976Z,6.37
2023-09-11T11:24:53.232Z,9.06
2023-09-11T11:25:57.509Z,5.37
2023-09-11T11:27:01.978Z,8.88
2023-09-11T11:28:09.154Z,6.25
2023-09-11T11:29:12.086Z,7.75
2023-09-11T11:30:16.591Z,6.19
2023-09-11T11:31:21.133Z,6.62
2023-09-11T11:32:24.651Z,23.06
2023-09-11T11:33:29.117Z,25.19
2023-09-11T11:34:32.396Z,38.50
2023-09-11T11:35:35.328Z,37.75
2023-09-11T11:36:39.659Z,28.00
2023-09-11T11:37:43.973Z,61.94
2023-09-11T11:38:47.507Z,16.00
2023-09-11T11:39:51.182Z,15.81
2023-09-11T11:40:54.094Z,17.44
2023-09-11T11:41:57.302Z,15.50
2023-09-11T11:43:00.287Z,15.88
2023-09-11T11:44:05.486Z,10.31
2023-09-11T11:45:08.514Z,11.75
2023-09-11T11:46:11.928Z,8.69
2023-09-11T11:47:16.269Z,10.75
2023-09-11T11:48:19.167Z,9.13
2023-09-11T11:49:23.388Z,4.25
2023-09-11T11:50:26.254Z,4.69
2023-09-11T11:51:32.462Z,4.75
2023-09-11T11:52:35.466Z,5.44
2023-09-11T11:53:38.330Z,4.56
2023-09-11T11:54:41.187Z,4.37
2023-09-11T11:55:44.638Z,4.87
2023-09-11T11:56:47.572Z,5.12
2023-09-11T11:57:51.428Z,4.81
2023-09-11T11:58:57.621Z,9.31
2023-09-11T12:00:00.556Z,8.19
2023-09-11T12:01:04.678Z,8.56
2023-09-11T12:02:09.039Z,11.06
2023-09-11T12:03:11.909Z,16.06
2023-09-11T12:04:15.026Z,16.87
2023-09-11T12:05:18.243Z,6.75
2023-09-11T12:06:21.408Z,15.94
2023-09-11T12:07:24.674Z,14.50
2023-09-11T12:08:28.413Z,13.81
2023-09-11T12:09:32.930Z,15.25
2023-09-11T12:10:35.958Z,13.69
2023-09-11T12:11:39.462Z,12.37
2023-09-11T12:12:42.345Z,11.25
2023-09-11T12:13:50.284Z,11.56
2023-09-11T12:14:51.073Z,14.56
2023-09-11T12:15:57.475Z,13.88
2023-09-11T12:17:01.128Z,12.94
2023-09-11T12:18:05.360Z,13.25
2023-09-11T12:19:08.555Z,14.38
2023-09-11T12:20:15.734Z,11.19
2023-09-11T12:21:18.598Z,10.56
2023-09-11T12:22:21.452Z,9.19
2023-09-11T12:23:24.290Z,8.69
2023-09-11T12:24:27.129Z,10.63
2023-09-11T12:25:29.972Z,10.31
2023-09-11T12:26:33.439Z,12.25
2023-09-11T12:27:36.459Z,12.37
2023-09-11T12:28:39.634Z,10.69
2023-09-11T12:29:43.559Z,18.56
2023-09-11T12:30:46.889Z,19.94
2023-09-11T12:31:49.873Z,17.31
2023-09-11T12:32:52.755Z,10.63
2023-09-11T12:33:56.723Z,10.81
2023-09-11T12:35:00.424Z,10.31
2023-09-11T12:36:03.495Z,13.19
2023-09-11T12:37:07.329Z,10.31
2023-09-11T12:38:11.541Z,12.69
2023-09-11T12:39:14.466Z,16.94
2023-09-11T12:40:20.626Z,12.69
2023-09-11T12:41:23.479Z,16.25
2023-09-11T12:42:26.357Z,12.13
2023-09-11T12:43:29.217Z,15.31
2023-09-11T12:44:32.543Z,11.12
2023-09-11T12:45:35.685Z,13.19
2023-09-11T12:46:38.647Z,13.19
2023-09-11T12:47:41.596Z,13.62
2023-09-11T12:48:47.688Z,12.50
2023-09-11T12:49:50.617Z,14.81
2023-09-11T12:50:53.737Z,23.00
2023-09-11T12:51:56.659Z,11.56
2023-09-11T12:53:00.277Z,10.06
2023-09-11T12:54:29.746Z,11.56
2023-09-11T12:55:08.119Z,11.69
2023-09-11T12:56:11.285Z,11.94
2023-09-11T12:57:14.208Z,11.94
2023-09-11T12:58:17.911Z,11.00
2023-09-11T12:59:22.130Z,11.19
2023-09-11T13:00:39.606Z,10.56
2023-09-11T13:01:42.414Z,14.56
2023-09-11T13:02:45.445Z,20.56
2023-09-11T13:03:49.292Z,14.19
2023-09-11T13:04:53.760Z,13.50
2023-09-11T13:05:56.606Z,11.12
2023-09-11T13:06:59.761Z,11.50
2023-09-11T13:08:02.639Z,12.69
2023-09-11T13:09:05.763Z,14.38
2023-09-11T13:10:09.307Z,13.69
2023-09-11T13:11:12.171Z,15.00
2023-09-11T13:12:15.114Z,14.87
2023-09-11T13:13:29.168Z,15.13
2023-09-11T13:14:23.795Z,15.81
2023-09-11T13:15:26.675Z,18.06
2023-09-11T13:16:29.702Z,15.13
2023-09-11T13:17:35.290Z,15.81
2023-09-11T13:18:38.310Z,22.06
2023-09-11T13:19:43.033Z,19.12
2023-09-11T13:20:51.067Z,15.75
2023-09-11T13:21:53.407Z,15.19
2023-09-11T13:22:57.593Z,12.19
2023-09-11T13:24:00.471Z,13.13
2023-09-11T13:25:06.624Z,14.63
2023-09-11T13:26:12.490Z,13.00
2023-09-11T13:27:17.440Z,15.88
2023-09-11T13:28:19.892Z,7.44
2023-09-11T13:29:25.285Z,7.12
2023-09-11T13:30:28.161Z,3.12
2023-09-11T13:31:30.965Z,4.37
2023-09-11T13:32:33.803Z,5.87
2023-09-11T13:33:37.956Z,7.94
2023-09-11T13:34:40.802Z,7.56
2023-09-11T13:35:43.726Z,7.37
2023-09-11T13:36:46.754Z,8.38
2023-09-11T13:37:49.751Z,5.25
2023-09-11T13:38:54.720Z,5.50
2023-09-11T13:39:57.562Z,8.00
2023-09-11T13:41:00.421Z,7.87
2023-09-11T13:42:08.734Z,11.00
2023-09-11T13:43:11.799Z,9.38
2023-09-11T13:44:14.724Z,8.38
2023-09-11T13:45:17.661Z,7.87
2023-09-11T13:46:20.574Z,3.87
2023-09-11T13:47:23.792Z,39.69
2023-09-11T13:48:26.926Z,7.56
2023-09-11T13:49:32.327Z,9.94
2023-09-11T13:50:35.679Z,6.87
2023-09-11T13:51:41.655Z,9.81
2023-09-11T13:52:44.578Z,8.31
2023-09-11T13:53:47.638Z,11.44
2023-09-11T13:54:50.423Z,8.50
2023-09-11T13:55:53.321Z,9.19